createdAt,value
2022-10-05T00:01:53.252Z,8.33
2022-10-05T00:04:24.083Z,10.08
2022-10-05T00:06:58.768Z,7.78
2022-10-05T00:09:28.837Z,10.48
2022-10-05T00:11:57.453Z,10.30
2022-10-05T00:14:31.855Z,7.35
2022-10-05T00:17:02.105Z,10.20
2022-10-05T00:19:33.734Z,9.30
2022-10-05T00:22:05.344Z,11.22
2022-10-05T00:24:33.879Z,8.13
2022-10-05T00:27:04.635Z,10.98
2022-10-05T00:29:35.164Z,11.25
2022-10-05T00:32:03.820Z,9.70
2022-10-05T00:34:34.610Z,8.25
2022-10-05T00:37:03.997Z,14.23
2022-10-05T00:39:33.860Z,9.63
2022-10-05T00:42:11.596Z,8.83
2022-10-05T00:44:58.253Z,8.20
2022-10-05T00:47:44.789Z,11.38
2022-10-05T00:50:31.357Z,11.65
2022-10-05T00:53:27.304Z,10.70
2022-10-05T00:55:58.922Z,10.95
2022-10-05T00:58:45.187Z,13.05
2022-10-05T01:01:16.843Z,8.45
2022-10-05T01:03:48.508Z,9.78
2022-10-05T01:06:29.310Z,10.70
2022-10-05T01:09:18.793Z,13.40
2022-10-05T01:12:05.507Z,10.13
2022-10-05T01:14:43.096Z,10.53
2022-10-05T01:17:35.269Z,12.00
2022-10-05T01:20:18.939Z,8.85
2022-10-05T01:22:59.444Z,11.60
2022-10-05T01:25:43.169Z,11.70
2022-10-05T01:28:17.321Z,11.88
2022-10-05T01:31:03.785Z,11.33
2022-10-05T01:33:46.759Z,13.28
2022-10-05T01:38:56.985Z,11.33
2022-10-05T01:41:37.596Z,8.38
2022-10-05T01:44:11.739Z,11.85
2022-10-05T01:46:46.546Z,10.25
2022-10-05T01:49:48.696Z,10.40
2022-10-05T01:52:52.088Z,9.45
2022-10-05T01:58:23.306Z,9.30
2022-10-05T02:01:21.783Z,8.10
2022-10-05T02:03:56.204Z,8.85
2022-10-05T02:06:27.810Z,9.68
2022-10-05T02:09:08.231Z,9.33
2022-10-05T02:11:40.194Z,11.85
2022-10-05T02:14:13.904Z,10.70
2022-10-05T02:16:48.088Z,8.53
2022-10-05T02:19:25.776Z,8.80
2022-10-05T02:21:57.372Z,10.70
2022-10-05T02:24:29.014Z,12.03
2022-10-05T02:26:58.523Z,9.80
2022-10-05T02:29:30.120Z,10.72
2022-10-05T02:32:06.731Z,11.18
2022-10-05T02:34:38.438Z,14.50
2022-10-05T02:37:16.096Z,7.78
2022-10-05T02:39:59.872Z,9.35
2022-10-05T02:42:31.502Z,12.15
2022-10-05T02:45:05.997Z,9.53
2022-10-05T02:48:03.274Z,9.40
2022-10-05T02:50:49.874Z,9.15
2022-10-05T02:53:45.657Z,9.40
2022-10-05T02:56:32.447Z,10.05
2022-10-05T02:59:12.954Z,9.98
2022-10-05T03:02:03.018Z,11.00
2022-10-05T03:05:15.157Z,14.23
2022-10-05T03:08:04.763Z,14.73
2022-10-05T03:10:54.164Z,10.08
2022-10-05T03:13:28.708Z,11.75
2022-10-05T03:16:08.955Z,10.45
2022-10-05T03:18:49.401Z,15.43
2022-10-05T03:21:44.340Z,11.35
2022-10-05T03:24:39.431Z,11.03
2022-10-05T03:27:11.044Z,11.68
2022-10-05T03:29:51.360Z,10.88
2022-10-05T03:32:28.730Z,15.13
2022-10-05T03:35:12.234Z,8.75
2022-10-05T03:37:49.318Z,13.22
2022-10-05T03:40:38.540Z,9.93
2022-10-05T03:43:25.202Z,10.68
2022-10-05T03:46:05.451Z,11.57
2022-10-05T03:48:45.926Z,8.38
2022-10-05T03:51:17.525Z,11.00
2022-10-05T03:53:52.125Z,12.93
2022-10-05T03:56:44.884Z,16.25
2022-10-05T03:59:28.825Z,11.73
2022-10-05T04:02:04.021Z,12.60
2022-10-05T04:04:35.630Z,9.25
2022-10-05T04:07:04.507Z,13.60
2022-10-05T04:09:39.041Z,13.93
2022-10-05T04:12:13.563Z,11.00
2022-10-05T04:15:08.673Z,12.07
2022-10-05T04:18:00.770Z,12.35
2022-10-05T04:20:40.644Z,11.10
2022-10-05T04:23:17.707Z,13.85
2022-10-05T04:25:55.449Z,12.47
2022-10-05T04:28:43.548Z,10.90
2022-10-05T04:31:15.114Z,12.95
2022-10-05T04:33:47.051Z,13.78
2022-10-05T04:36:24.232Z,10.67
2022-10-05T04:39:04.701Z,11.40
2022-10-05T04:41:51.132Z,11.73
2022-10-05T04:44:43.954Z,11.80
2022-10-05T04:47:15.559Z,11.10
2022-10-05T04:50:16.991Z,13.25
2022-10-05T04:53:10.340Z,12.55
2022-10-05T04:56:16.199Z,12.03
2022-10-05T04:58:50.251Z,14.43
2022-10-05T05:01:36.681Z,12.15
2022-10-05T05:04:38.884Z,11.97
2022-10-05T05:07:35.906Z,12.78
2022-10-05T05:10:25.622Z,12.03
2022-10-05T05:13:06.052Z,12.68
2022-10-05T05:15:55.210Z,13.28
2022-10-05T05:18:49.154Z,13.13
2022-10-05T05:21:41.526Z,10.20
2022-10-05T05:24:21.944Z,10.73
2022-10-05T05:27:09.786Z,13.15
2022-10-05T05:29:50.046Z,12.15
2022-10-05T05:32:30.847Z,12.25
2022-10-05T05:35:11.418Z,10.78
2022-10-05T05:38:13.417Z,12.65
2022-10-05T05:40:50.870Z,12.05
2022-10-05T05:43:28.589Z,10.63
2022-10-05T05:46:00.489Z,11.05
2022-10-05T05:48:37.876Z,10.57
2022-10-05T05:51:15.366Z,11.97
2022-10-05T05:53:55.833Z,10.30
2022-10-05T05:56:42.177Z,10.43
2022-10-05T05:59:25.519Z,12.47
2022-10-05T06:01:57.203Z,9.65
2022-10-05T06:04:31.774Z,9.93
2022-10-05T06:07:03.142Z,11.25
2022-10-05T06:09:46.427Z,12.95
2022-10-05T06:12:20.953Z,10.68
2022-10-05T06:14:55.540Z,8.88
2022-10-05T06:17:27.185Z,10.65
2022-10-05T06:20:03.974Z,11.10
2022-10-05T06:22:37.512Z,10.58
2022-10-05T06:25:34.975Z,12.70
2022-10-05T06:28:35.094Z,13.55
2022-10-05T06:31:45.878Z,8.83
2022-10-05T06:34:38.044Z,9.13
2022-10-05T06:37:12.108Z,8.83
2022-10-05T06:39:53.362Z,9.65
2022-10-05T06:42:25.938Z,10.25
2022-10-05T06:45:03.050Z,11.90
2022-10-05T06:47:46.366Z,9.38
2022-10-05T06:50:18.014Z,8.13
2022-10-05T06:53:18.105Z,9.80
2022-10-05T06:56:07.647Z,9.70
2022-10-05T06:58:55.453Z,10.80
2022-10-05T07:01:55.603Z,11.60
2022-10-05T07:04:52.547Z,13.80
2022-10-05T07:07:24.171Z,10.75
2022-10-05T07:10:07.173Z,9.68
2022-10-05T07:15:36.879Z,10.13
2022-10-05T07:18:26.307Z,13.20
2022-10-05T07:20:57.921Z,10.00
2022-10-05T07:23:38.423Z,8.00
2022-10-05T07:26:14.747Z,10.93
2022-10-05T07:29:05.853Z,10.15
2022-10-05T07:31:43.136Z,12.18
2022-10-05T07:34:14.775Z,10.28
2022-10-05T07:37:07.356Z,9.88
2022-10-05T07:40:00.540Z,10.35
2022-10-05T07:42:44.575Z,8.43
2022-10-05T07:45:28.621Z,8.18
2022-10-05T07:47:59.976Z,7.95
2022-10-05T07:50:43.623Z,7.60
2022-10-05T07:53:24.075Z,6.65
2022-10-05T07:55:55.411Z,9.20
2022-10-05T07:58:41.418Z,7.03
2022-10-05T08:01:24.460Z,9.10
2022-10-05T08:06:35.758Z,7.28
2022-10-05T08:09:22.056Z,7.35
2022-10-05T08:12:11.645Z,9.48
2022-10-05T08:14:55.147Z,9.13
2022-10-05T08:17:27.018Z,7.47
2022-10-05T08:20:01.698Z,6.47
2022-10-05T08:22:33.307Z,5.67
2022-10-05T08:25:04.940Z,5.00
2022-10-05T08:27:54.705Z,8.60
2022-10-05T08:30:24.140Z,6.95
2022-10-05T08:33:10.652Z,7.37
2022-10-05T08:35:43.743Z,5.55
2022-10-05T08:38:18.654Z,7.72
2022-10-05T08:40:56.882Z,7.72
2022-10-05T08:43:46.376Z,4.95
2022-10-05T08:46:26.741Z,6.58
2022-10-05T08:48:58.445Z,6.80
2022-10-05T08:51:38.616Z,5.97
2022-10-05T08:54:22.192Z,7.87
2022-10-05T08:56:59.077Z,6.80
2022-10-05T08:59:53.535Z,7.00
2022-10-05T09:02:41.818Z,8.03
2022-10-05T09:05:28.438Z,4.72
2022-10-05T09:08:33.007Z,4.60
2022-10-05T09:11:16.985Z,4.95
2022-10-05T09:14:18.957Z,5.05
2022-10-05T09:16:50.573Z,4.03
2022-10-05T09:19:40.369Z,6.90
2022-10-05T09:22:17.539Z,7.03
2022-10-05T09:25:43.153Z,5.12
2022-10-05T09:28:46.749Z,7.25
2022-10-05T09:31:27.296Z,8.80
2022-10-05T09:34:07.766Z,8.58
2022-10-05T09:36:39.386Z,9.53
2022-10-05T09:39:17.013Z,8.78
2022-10-05T09:41:54.328Z,8.55
2022-10-05T09:44:44.723Z,8.18
2022-10-05T09:47:33.124Z,6.92
2022-10-05T09:50:07.545Z,7.90
2022-10-05T09:53:00.136Z,6.35
2022-10-05T09:55:49.975Z,5.50
2022-10-05T09:58:29.403Z,4.62
2022-10-05T10:01:09.640Z,8.95
2022-10-05T10:03:58.474Z,6.12
2022-10-05T10:07:19.071Z,5.25
2022-10-05T10:10:24.099Z,5.53
2022-10-05T10:12:56.908Z,9.48
2022-10-05T10:18:30.925Z,7.60
2022-10-05T10:21:12.372Z,8.67
2022-10-05T10:23:46.905Z,6.67
2022-10-05T10:29:06.992Z,5.35
2022-10-05T10:31:58.780Z,3.37
2022-10-05T10:37:42.346Z,8.18
2022-10-05T10:40:12.075Z,3.25
2022-10-05T10:42:41.812Z,6.22
2022-10-05T10:45:20.471Z,7.65
2022-10-05T10:47:53.058Z,7.62
2022-10-05T10:50:32.956Z,5.35
2022-10-05T10:53:02.696Z,3.75
2022-10-05T10:55:32.439Z,6.62
2022-10-05T10:58:24.413Z,2.50
2022-10-05T11:01:06.287Z,3.02
2022-10-05T11:03:41.800Z,3.65
2022-10-05T11:08:55.425Z,3.08
2022-10-05T11:43:37.196Z,4.60
2022-10-05T11:46:06.963Z,3.30
2022-10-05T11:48:45.665Z,4.15
2022-10-05T11:51:36.048Z,3.20
2022-10-05T11:54:08.514Z,4.20
2022-10-05T11:56:43.987Z,3.83
2022-10-05T11:59:16.571Z,4.03
2022-10-05T12:01:46.342Z,2.70
2022-10-05T12:04:21.975Z,2.50
2022-10-05T12:06:57.577Z,3.63
2022-10-05T12:09:36.234Z,2.95
2022-10-05T12:12:11.826Z,2.62
2022-10-05T12:14:47.692Z,2.58
2022-10-05T12:17:17.440Z,2.52
2022-10-05T12:19:47.171Z,1.60
2022-10-05T12:22:20.047Z,4.40
2022-10-05T12:25:06.453Z,1.70
2022-10-05T12:27:36.571Z,2.60
2022-10-05T12:30:23.172Z,1.98
2022-10-05T12:33:02.507Z,1.70
2022-10-05T12:35:47.508Z,2.20
2022-10-05T12:41:13.104Z,1.62
2022-10-05T12:43:43.002Z,1.42
2022-10-05T12:46:18.981Z,1.40
2022-10-05T12:49:04.100Z,2.13
2022-10-05T12:51:37.175Z,1.60
2022-10-05T12:54:15.751Z,2.35
2022-10-05T12:56:48.148Z,1.65
2022-10-05T12:59:20.828Z,1.70
2022-10-05T13:01:50.621Z,3.50
2022-10-05T13:04:20.442Z,2.83
2022-10-05T13:06:53.352Z,3.17
2022-10-05T13:09:38.105Z,1.55
2022-10-05T13:12:10.508Z,1.98
2022-10-05T13:14:40.262Z,2.42
2022-10-05T13:17:12.939Z,2.52
2022-10-05T13:19:44.469Z,1.50
2022-10-05T13:22:23.275Z,3.10
2022-10-05T13:24:53.021Z,1.70
2022-10-05T13:27:22.685Z,1.77
2022-10-05T13:29:54.426Z,1.47
2022-10-05T13:32:25.035Z,2.20
2022-10-05T13:35:00.954Z,1.82
2022-10-05T13:37:31.677Z,1.47
2022-10-05T13:40:19.619Z,2.08
2022-10-05T13:45:55.843Z,1.70
2022-10-05T13:48:29.917Z,2.50
2022-10-05T13:51:04.363Z,1.80
2022-10-05T13:53:50.741Z,3.47
2022-10-05T13:56:25.284Z,2.08
2022-10-05T13:58:59.391Z,2.35
2022-10-05T14:01:44.376Z,3.08
2022-10-05T14:04:20.616Z,1.95
2022-10-05T14:06:49.665Z,2.47
2022-10-05T14:09:22.634Z,2.72
2022-10-05T14:11:52.399Z,1.90
2022-10-05T14:14:25.209Z,2.40
2022-10-05T14:17:04.617Z,3.50
2022-10-05T14:19:34.346Z,2.00
2022-10-05T14:22:03.568Z,3.70
2022-10-05T14:24:44.302Z,2.10
2022-10-05T14:27:04.719Z,3.08
2022-10-05T14:29:56.642Z,2.60
2022-10-05T14:32:26.995Z,2.33
2022-10-05T14:35:04.092Z,3.30
2022-10-05T14:37:33.661Z,2.40
2022-10-05T14:40:06.488Z,3.20
2022-10-05T14:42:36.287Z,1.60
2022-10-05T14:45:14.537Z,3.58
2022-10-05T14:47:46.973Z,1.60
2022-10-05T14:50:35.279Z,1.80
2022-10-05T14:53:05.015Z,3.60
2022-10-05T14:55:43.943Z,1.40
2022-10-05T14:58:13.663Z,2.02
2022-10-05T15:00:48.708Z,2.83
2022-10-05T15:03:18.713Z,2.55
2022-10-05T15:05:51.435Z,1.33
2022-10-05T15:08:38.820Z,1.40
2022-10-05T15:11:07.917Z,2.75
2022-10-05T15:13:41.335Z,2.83
2022-10-05T15:16:20.489Z,2.00
2022-10-05T15:18:50.374Z,3.33
2022-10-05T15:21:35.431Z,2.90
2022-10-05T15:24:05.184Z,3.23
2022-10-05T15:26:36.306Z,1.50
2022-10-05T15:29:13.737Z,1.92
2022-10-05T15:31:55.762Z,2.20
2022-10-05T15:34:31.422Z,2.60
2022-10-05T15:37:04.163Z,1.77
2022-10-05T15:39:39.623Z,2.37
2022-10-05T15:42:09.422Z,1.95
2022-10-05T15:44:55.925Z,2.00
2022-10-05T15:47:25.718Z,3.95
2022-10-05T15:50:04.495Z,3.45
2022-10-05T15:52:40.245Z,2.30
2022-10-05T15:55:25.287Z,2.80
2022-10-05T15:57:57.944Z,2.22
2022-10-05T16:00:26.313Z,2.62
2022-10-05T16:03:12.756Z,1.52
2022-10-05T16:06:05.269Z,3.35
2022-10-05T16:08:52.935Z,1.65
2022-10-05T16:11:25.110Z,3.60
2022-10-05T16:13:54.869Z,1.87
2022-10-05T16:16:27.513Z,2.00
2022-10-05T16:19:03.333Z,3.37
2022-10-05T16:21:58.108Z,4.60
2022-10-05T16:24:28.717Z,7.47
2022-10-05T16:27:23.659Z,14.20
2022-10-05T16:30:24.975Z,24.72
2022-10-05T16:32:57.359Z,5.55
2022-10-05T16:35:30.081Z,3.98
2022-10-05T16:37:59.814Z,3.45
2022-10-05T16:40:32.448Z,6.37
2022-10-05T16:43:02.365Z,5.78
2022-10-05T16:45:44.434Z,5.12
2022-10-05T16:48:04.650Z,3.90
2022-10-05T16:50:36.022Z,17.42
2022-10-05T16:53:05.781Z,14.20
2022-10-05T16:55:37.324Z,9.98
2022-10-05T16:58:08.939Z,5.97
2022-10-05T17:00:43.607Z,7.10
2022-10-05T17:03:31.902Z,3.65
2022-10-05T17:06:09.559Z,3.75
2022-10-05T17:08:57.807Z,5.67
2022-10-05T17:11:54.738Z,3.95
2022-10-05T17:14:32.064Z,3.87
2022-10-05T17:17:15.920Z,4.08
2022-10-05T17:20:02.914Z,5.05
2022-10-05T17:22:39.041Z,3.08
2022-10-05T17:25:18.368Z,3.98
2022-10-05T17:28:00.137Z,5.30
2022-10-05T17:30:31.888Z,3.30
2022-10-05T17:33:29.261Z,3.60
2022-10-05T17:36:08.383Z,3.80
2022-10-05T17:38:42.952Z,2.47
2022-10-05T17:41:14.569Z,3.42
2022-10-05T17:44:02.626Z,3.05
2022-10-05T17:46:48.634Z,4.87
2022-10-05T17:49:41.353Z,4.10
2022-10-05T17:52:44.507Z,6.83
2022-10-05T17:55:27.508Z,3.25
2022-10-05T18:00:41.956Z,3.40
2022-10-05T18:03:45.221Z,2.95
2022-10-05T18:06:33.431Z,3.35
2022-10-05T18:09:23.356Z,4.78
2022-10-05T18:12:19.311Z,3.05
2022-10-05T18:14:57.089Z,5.17
2022-10-05T18:17:54.732Z,3.85
2022-10-05T18:20:29.966Z,4.97
2022-10-05T18:23:10.432Z,2.77
2022-10-05T18:25:42.067Z,3.00
2022-10-05T18:28:22.275Z,2.25
2022-10-05T18:30:59.634Z,3.25
2022-10-05T18:33:37.257Z,3.33
2022-10-05T18:36:27.426Z,3.30
2022-10-05T18:39:15.060Z,3.58
2022-10-05T18:42:15.372Z,2.60
2022-10-05T18:44:50.019Z,3.60
2022-10-05T18:47:36.939Z,3.30
2022-10-05T18:50:23.080Z,4.05
2022-10-05T18:53:23.340Z,3.50
2022-10-05T18:56:15.883Z,4.28
2022-10-05T18:59:05.413Z,4.87
2022-10-05T19:02:04.406Z,2.95
2022-10-05T19:04:54.178Z,4.37
2022-10-05T19:07:31.856Z,3.52
2022-10-05T19:10:12.275Z,6.55
2022-10-05T19:12:52.606Z,3.00
2022-10-05T19:15:49.007Z,4.15
2022-10-05T19:18:26.584Z,4.10
2022-10-05T19:20:58.362Z,5.20
2022-10-05T19:23:42.268Z,2.98
2022-10-05T19:26:16.709Z,3.50
2022-10-05T19:28:57.229Z,2.33
2022-10-05T19:31:31.699Z,2.27
2022-10-05T19:34:13.552Z,2.50
2022-10-05T19:37:00.327Z,3.15
2022-10-05T19:39:48.243Z,5.05
2022-10-05T19:42:19.868Z,3.67
2022-10-05T19:45:03.365Z,2.10
2022-10-05T19:47:47.125Z,3.00
2022-10-05T19:50:27.890Z,2.58
2022-10-05T19:53:17.128Z,3.00
2022-10-05T19:55:47.231Z,2.42
2022-10-05T19:58:27.809Z,2.55
2022-10-05T20:01:06.872Z,2.80
2022-10-05T20:03:40.458Z,4.50
2022-10-05T20:06:11.566Z,2.65
2022-10-05T20:08:46.510Z,2.00
2022-10-05T20:11:21.302Z,4.08
2022-10-05T20:14:01.914Z,4.72
2022-10-05T20:16:49.583Z,2.08
2022-10-05T20:19:54.251Z,3.98
2022-10-05T20:22:38.054Z,4.37
2022-10-05T20:25:21.584Z,2.52
2022-10-05T20:27:53.035Z,2.42
2022-10-05T20:30:23.809Z,3.58
2022-10-05T20:32:56.050Z,2.50
2022-10-05T20:35:26.883Z,4.37
2022-10-05T20:37:57.436Z,3.35
2022-10-05T20:40:28.896Z,5.53
2022-10-05T20:43:08.320Z,3.83
2022-10-05T20:45:38.600Z,5.45
2022-10-05T20:48:07.141Z,2.37
2022-10-05T20:50:37.367Z,4.25
2022-10-05T20:53:11.586Z,3.30
2022-10-05T20:55:37.279Z,5.90
2022-10-05T20:58:06.995Z,3.65
2022-10-05T21:00:53.296Z,4.47
2022-10-05T21:03:21.890Z,2.02
2022-10-05T21:05:50.580Z,2.08
2022-10-05T21:08:19.635Z,2.37
2022-10-05T21:10:49.262Z,5.90
2022-10-05T21:13:18.375Z,3.50
2022-10-05T21:15:46.929Z,4.37
2022-10-05T21:18:17.291Z,2.83
2022-10-05T21:20:47.419Z,2.98
2022-10-05T21:23:15.998Z,3.98
2022-10-05T21:25:44.607Z,2.98
2022-10-05T21:28:13.201Z,5.17
2022-10-05T21:30:41.771Z,3.72
2022-10-05T21:33:10.322Z,3.75
2022-10-05T21:35:38.876Z,3.87
2022-10-05T21:38:07.421Z,4.08
2022-10-05T21:40:36.113Z,3.33
2022-10-05T21:43:04.940Z,6.85
2022-10-05T21:45:33.726Z,2.33
2022-10-05T21:48:02.469Z,3.52
2022-10-05T21:50:32.203Z,5.20
2022-10-05T21:53:03.201Z,4.67
2022-10-05T21:55:33.204Z,5.20
2022-10-05T21:58:03.665Z,2.83
2022-10-05T22:00:32.526Z,1.02
2022-10-05T22:03:01.298Z,3.42
2022-10-05T22:05:29.959Z,2.35
2022-10-05T22:07:58.703Z,2.25
2022-10-05T22:10:27.332Z,2.62
2022-10-05T22:13:01.760Z,1.77
2022-10-05T22:15:31.850Z,2.62
2022-10-05T22:18:00.775Z,1.45
2022-10-05T22:20:29.570Z,0.75
2022-10-05T22:22:58.113Z,2.42
2022-10-05T22:25:26.748Z,2.58
2022-10-05T22:27:55.331Z,2.58
2022-10-05T22:30:23.817Z,3.98
2022-10-05T22:32:52.341Z,1.72
2022-10-05T22:35:20.840Z,3.83
2022-10-05T22:37:49.453Z,5.00
2022-10-05T22:40:18.179Z,2.10
2022-10-05T22:42:46.753Z,1.12
2022-10-05T22:45:15.370Z,2.20
2022-10-05T22:47:43.917Z,1.62
2022-10-05T22:50:12.469Z,4.17
2022-10-05T22:52:42.314Z,2.95
2022-10-05T22:55:11.132Z,2.87
2022-10-05T22:57:41.241Z,3.72
2022-10-05T23:00:11.120Z,3.80
2022-10-05T23:03:03.432Z,1.95
2022-10-05T23:05:32.147Z,2.98
2022-10-05T23:08:02.506Z,1.67
2022-10-05T23:10:50.372Z,3.30
2022-10-05T23:13:18.941Z,4.90
2022-10-05T23:15:47.513Z,2.10
2022-10-05T23:18:16.649Z,3.12
2022-10-05T23:20:45.172Z,3.15
2022-10-05T23:23:13.718Z,6.67
2022-10-05T23:25:42.309Z,4.00
2022-10-05T23:28:10.876Z,5.37
2022-10-05T23:30:39.406Z,6.83
2022-10-05T23:33:08.096Z,2.22
2022-10-05T23:35:36.661Z,0.95
2022-10-05T23:38:05.261Z,0.82
2022-10-05T23:40:33.992Z,1.37
2022-10-05T23:43:02.538Z,5.17
2022-10-05T23:45:31.095Z,1.00
2022-10-05T23:47:59.623Z,3.87
2022-10-05T23:50:28.236Z,1.27
2022-10-05T23:52:56.762Z,2.83
2022-10-05T23:55:25.362Z,2.72
2022-10-05T23:57:53.900Z,1.02
